CheckWX is a tool to help pilots better visualize weather data.  It is not intended as a substitute for an official pre-flight weather briefing.

14:53:54 UTC

KFOD METAR
Fort Dodge Regional Airport
Fort Dodge, Iowa, USA
Current

43 mins ago

KFOD 201411Z AUTO 03009KT SCT016 07/03 A3017 RMK AO2 PWINO RVRNO $
Observed
May-20 @ 14:11 UTC
Wind
  • 030° at 9 KTS
Visibility
Cloud Levels
  • Scattered at 1,600' AGL
Temperature
C / 45°F
Dewpoint
C / 37°F
Humidity
76%
Altimeter
30.17" Hg
Pressure
1021.72 hPa
Previous

58 mins ago

KFOD 201356Z AUTO 03010KT 10SM BKN016 07/03 A3016 RMK AO2 SLP247 T00670033
Observed
May-20 @ 13:56 UTC
Wind
  • 030° at 10 KTS
Visibility
10 SM
Flight Rules
MVFR
Cloud Levels
  • Broken at 1,600' AGL
Temperature
C / 45°F
Dewpoint
C / 37°F
Humidity
76%
Altimeter
30.16" Hg
Pressure
1021.32 hPa
Previous

2 hours ago

KFOD 201303Z AUTO 01009KT 10SM BKN012 06/03 A3016 RMK AO2
Observed
May-20 @ 13:03 UTC
Wind
  • 010° at 9 KTS
Visibility
10 SM
Flight Rules
MVFR
Cloud Levels
  • Broken at 1,200' AGL
Temperature
C / 43°F
Dewpoint
C / 37°F
Humidity
81%
Altimeter
30.16" Hg
Pressure
1021.32 hPa